createdAt,value
2023-02-24T00:01:02.342Z,18.83
2023-02-24T00:03:29.008Z,20.20
2023-02-24T00:05:55.651Z,14.77
2023-02-24T00:08:22.310Z,20.97
2023-02-24T00:10:48.921Z,19.93
2023-02-24T00:13:16.937Z,15.47
2023-02-24T00:15:43.597Z,16.87
2023-02-24T00:18:10.270Z,11.90
2023-02-24T00:20:36.975Z,17.57
2023-02-24T00:23:03.639Z,11.33
2023-02-24T00:25:30.272Z,12.00
2023-02-24T00:27:56.930Z,18.30
2023-02-24T00:30:24.969Z,21.17
2023-02-24T00:32:51.668Z,22.40
2023-02-24T00:35:18.356Z,13.20
2023-02-24T00:37:45.003Z,11.83
2023-02-24T00:40:12.638Z,12.00
2023-02-24T00:42:39.275Z,8.93
2023-02-24T00:45:07.408Z,12.43
2023-02-24T00:47:38.796Z,17.50
2023-02-24T00:50:06.536Z,17.83
2023-02-24T00:52:33.201Z,17.60
2023-02-24T00:54:59.873Z,16.60
2023-02-24T00:57:26.506Z,16.57
2023-02-24T00:59:53.175Z,9.97
2023-02-24T01:02:19.957Z,14.73
2023-02-24T01:04:47.945Z,8.97
2023-02-24T01:07:14.713Z,7.80
2023-02-24T01:09:41.378Z,16.07
2023-02-24T01:12:09.655Z,11.00
2023-02-24T01:14:36.374Z,11.03
2023-02-24T01:17:03.793Z,5.17
2023-02-24T01:19:31.916Z,13.27
2023-02-24T01:22:02.040Z,16.53
2023-02-24T01:24:31.191Z,9.30
2023-02-24T01:26:57.860Z,16.07
2023-02-24T01:29:24.552Z,15.90
2023-02-24T01:31:51.608Z,10.70
2023-02-24T01:34:18.744Z,16.63
2023-02-24T01:36:46.743Z,10.53
2023-02-24T01:39:14.769Z,17.03
2023-02-24T01:41:44.615Z,17.60
2023-02-24T01:44:45.003Z,15.60
2023-02-24T01:47:12.481Z,14.13
2023-02-24T01:49:42.258Z,11.13
2023-02-24T01:52:13.352Z,10.90
2023-02-24T01:54:44.010Z,15.73
2023-02-24T01:57:13.122Z,14.80
2023-02-24T01:59:39.810Z,9.27
2023-02-24T02:02:08.355Z,9.83
2023-02-24T02:04:40.674Z,14.80
2023-02-24T02:07:08.339Z,11.80
2023-02-24T02:09:35.021Z,7.90
2023-02-24T02:12:03.259Z,18.53
2023-02-24T02:14:31.811Z,15.30
2023-02-24T02:17:06.963Z,19.10
2023-02-24T02:20:01.056Z,10.53
2023-02-24T02:22:43.593Z,15.70
2023-02-24T02:25:16.318Z,11.53
2023-02-24T02:28:26.100Z,7.20
2023-02-24T02:31:14.824Z,10.47
2023-02-24T02:34:09.435Z,11.83
2023-02-24T02:36:47.381Z,18.10
2023-02-24T02:39:17.912Z,12.30
2023-02-24T02:41:52.008Z,19.97
2023-02-24T02:44:24.281Z,12.30
2023-02-24T02:46:56.490Z,11.53
2023-02-24T02:49:29.662Z,13.83
2023-02-24T02:52:02.982Z,14.43
2023-02-24T02:54:36.169Z,20.53
2023-02-24T02:57:09.094Z,19.77
2023-02-24T02:59:40.415Z,14.87
2023-02-24T03:02:09.123Z,13.67
2023-02-24T03:04:40.928Z,12.23
2023-02-24T03:07:09.599Z,7.67
2023-02-24T03:09:40.177Z,17.50
2023-02-24T03:12:10.690Z,16.63
2023-02-24T03:14:41.617Z,6.80
2023-02-24T03:17:11.768Z,14.40
2023-02-24T03:19:41.612Z,16.70
2023-02-24T03:22:11.798Z,12.17
2023-02-24T03:24:38.762Z,19.13
2023-02-24T03:27:11.475Z,16.37
2023-02-24T03:29:43.897Z,18.53
2023-02-24T03:32:17.904Z,12.83
2023-02-24T03:34:51.280Z,19.23
2023-02-24T03:37:18.262Z,9.40
2023-02-24T03:39:44.959Z,9.27
2023-02-24T03:42:16.495Z,13.27
2023-02-24T03:44:43.213Z,17.43
2023-02-24T03:47:09.869Z,13.23
2023-02-24T03:49:36.668Z,14.27
2023-02-24T03:52:15.685Z,15.87
2023-02-24T03:55:00.089Z,14.70
2023-02-24T03:57:35.427Z,10.17
2023-02-24T04:00:08.728Z,20.10
2023-02-24T04:02:35.586Z,8.17
2023-02-24T04:05:10.544Z,14.00
2023-02-24T04:07:43.894Z,16.23
2023-02-24T04:10:15.256Z,11.73
2023-02-24T04:12:47.723Z,12.50
2023-02-24T04:15:21.773Z,18.00
2023-02-24T04:17:52.119Z,5.50
2023-02-24T04:20:21.545Z,9.90
2023-02-24T04:22:52.730Z,12.30
2023-02-24T04:25:21.856Z,8.57
2023-02-24T04:27:48.765Z,14.47
2023-02-24T04:30:15.833Z,5.73
2023-02-24T04:32:43.051Z,11.87
2023-02-24T04:35:13.641Z,13.20
2023-02-24T04:37:40.325Z,8.47
2023-02-24T04:40:10.015Z,10.67
2023-02-24T04:42:36.675Z,14.50
2023-02-24T04:45:03.718Z,7.80
2023-02-24T04:47:30.366Z,9.83
2023-02-24T04:49:56.998Z,13.33
2023-02-24T04:52:23.650Z,10.00
2023-02-24T04:54:50.319Z,15.10
2023-02-24T04:57:18.308Z,8.90
2023-02-24T04:59:44.978Z,10.73
2023-02-24T05:02:11.650Z,11.20
2023-02-24T05:04:38.350Z,13.07
2023-02-24T05:07:05.093Z,9.27
2023-02-24T05:09:31.825Z,8.57
2023-02-24T05:11:58.477Z,11.40
2023-02-24T05:14:26.483Z,10.27
2023-02-24T05:16:53.177Z,10.67
2023-02-24T05:19:20.610Z,18.43
2023-02-24T05:21:47.240Z,15.10
2023-02-24T05:24:13.909Z,7.40
2023-02-24T05:26:40.548Z,8.40
2023-02-24T05:29:08.078Z,10.80
2023-02-24T05:31:37.298Z,16.93
2023-02-24T05:34:06.022Z,10.17
2023-02-24T05:36:36.272Z,11.63
2023-02-24T05:39:03.433Z,7.80
2023-02-24T05:41:30.262Z,5.10
2023-02-24T05:43:56.885Z,18.40
2023-02-24T05:46:25.677Z,8.73
2023-02-24T05:48:54.054Z,12.83
2023-02-24T05:51:20.969Z,9.63
2023-02-24T05:53:47.753Z,9.57
2023-02-24T05:56:14.398Z,9.33
2023-02-24T05:58:41.025Z,6.97
2023-02-24T06:01:11.694Z,7.67
2023-02-24T06:03:38.335Z,7.63
2023-02-24T06:06:06.538Z,15.77
2023-02-24T06:08:33.183Z,8.17
2023-02-24T06:10:59.824Z,14.77
2023-02-24T06:13:26.474Z,13.50
2023-02-24T06:15:55.327Z,5.83
2023-02-24T06:18:22.010Z,7.93
2023-02-24T06:20:48.685Z,5.20
2023-02-24T06:23:16.904Z,11.63
2023-02-24T06:25:43.634Z,11.07
2023-02-24T06:28:10.296Z,7.90
2023-02-24T06:30:37.285Z,7.10
2023-02-24T06:33:04.128Z,8.63
2023-02-24T06:35:30.829Z,5.93
2023-02-24T06:37:57.524Z,11.53
2023-02-24T06:40:25.526Z,15.60
2023-02-24T06:42:53.537Z,15.40
2023-02-24T06:45:20.957Z,7.70
2023-02-24T06:47:47.672Z,10.73
2023-02-24T06:50:15.270Z,9.00
2023-02-24T06:52:42.151Z,6.20
2023-02-24T06:55:10.354Z,14.90
2023-02-24T06:57:38.389Z,11.57
2023-02-24T07:00:06.183Z,6.50
2023-02-24T07:02:32.822Z,9.17
2023-02-24T07:04:59.473Z,21.90
2023-02-24T07:07:26.453Z,5.43
2023-02-24T07:09:53.165Z,4.53
2023-02-24T07:12:19.815Z,9.50
2023-02-24T07:14:47.816Z,7.77
2023-02-24T07:17:14.506Z,12.20
2023-02-24T07:19:41.185Z,4.60
2023-02-24T07:22:09.218Z,10.10
2023-02-24T07:24:37.153Z,14.17
2023-02-24T07:27:06.461Z,10.60
2023-02-24T07:29:34.628Z,10.83
2023-02-24T07:32:04.462Z,12.87
2023-02-24T07:34:31.965Z,8.13
2023-02-24T07:36:58.710Z,6.33
2023-02-24T07:39:25.538Z,6.90
2023-02-24T07:41:53.388Z,8.10
2023-02-24T07:44:21.573Z,5.70
2023-02-24T07:46:48.299Z,9.53
2023-02-24T07:49:18.539Z,11.53
2023-02-24T07:51:45.832Z,8.70
2023-02-24T07:54:12.513Z,8.20
2023-02-24T07:56:40.082Z,5.20
2023-02-24T07:59:07.062Z,9.77
2023-02-24T08:01:36.000Z,4.80
2023-02-24T08:04:02.641Z,9.93
2023-02-24T08:06:33.450Z,7.53
2023-02-24T08:09:00.120Z,8.87
2023-02-24T08:11:27.539Z,4.47
2023-02-24T08:13:54.219Z,7.73
2023-02-24T08:16:20.934Z,11.23
2023-02-24T08:18:47.630Z,6.10
2023-02-24T08:21:14.765Z,10.23
2023-02-24T08:23:43.003Z,3.40
2023-02-24T08:26:09.727Z,10.70
2023-02-24T08:28:36.423Z,2.90
2023-02-24T08:31:03.660Z,6.73
2023-02-24T08:33:30.638Z,6.73
2023-02-24T08:35:57.585Z,4.13
2023-02-24T08:38:26.345Z,5.13
2023-02-24T08:40:54.689Z,4.30
2023-02-24T08:43:25.112Z,7.83
2023-02-24T08:45:54.600Z,2.83
2023-02-24T08:48:23.382Z,6.77
2023-02-24T08:50:50.174Z,6.50
2023-02-24T08:53:16.883Z,2.73
2023-02-24T08:55:43.553Z,4.13
2023-02-24T08:58:11.792Z,13.23
2023-02-24T09:00:38.481Z,2.90
2023-02-24T09:03:05.168Z,4.63
2023-02-24T09:05:31.808Z,5.47
2023-02-24T09:07:58.475Z,4.67
2023-02-24T09:10:25.287Z,7.00
2023-02-24T09:12:51.944Z,15.10
2023-02-24T09:15:20.071Z,6.73
2023-02-24T09:17:46.761Z,6.97
2023-02-24T09:20:15.486Z,5.90
2023-02-24T09:22:42.121Z,7.83
2023-02-24T09:25:11.114Z,1.93
2023-02-24T09:27:37.904Z,3.20
2023-02-24T09:30:05.491Z,2.47
2023-02-24T09:32:33.645Z,1.53
2023-02-24T09:35:00.332Z,5.20
2023-02-24T09:37:27.093Z,5.50
2023-02-24T09:39:54.846Z,7.20
2023-02-24T09:42:24.076Z,4.73
2023-02-24T09:44:53.591Z,7.10
2023-02-24T09:47:26.095Z,4.83
2023-02-24T09:49:55.855Z,5.53
2023-02-24T09:52:27.078Z,6.17
2023-02-24T09:54:54.096Z,7.17
2023-02-24T09:57:23.925Z,5.93
2023-02-24T09:59:57.656Z,6.40
2023-02-24T10:02:37.695Z,6.20
2023-02-24T10:05:16.412Z,7.20
2023-02-24T10:07:43.998Z,9.57
2023-02-24T10:10:15.660Z,5.93
2023-02-24T10:12:42.653Z,6.13
2023-02-24T10:15:14.251Z,3.17
2023-02-24T10:17:40.999Z,7.63
2023-02-24T10:20:15.509Z,9.77
2023-02-24T10:22:49.307Z,9.87
2023-02-24T10:25:44.928Z,7.03
2023-02-24T10:28:24.420Z,5.73
2023-02-24T10:31:02.434Z,2.80
2023-02-24T10:33:34.788Z,4.63
2023-02-24T10:36:17.483Z,6.90
2023-02-24T10:38:45.825Z,2.53
2023-02-24T10:41:14.230Z,5.57
2023-02-24T10:43:41.485Z,5.80
2023-02-24T10:46:26.435Z,5.23
2023-02-24T10:48:59.996Z,9.97
2023-02-24T10:51:32.506Z,4.03
2023-02-24T10:54:11.113Z,8.00
2023-02-24T10:56:42.272Z,9.40
2023-02-24T10:59:11.709Z,11.23
2023-02-24T11:01:38.534Z,5.80
2023-02-24T11:04:05.242Z,8.47
2023-02-24T11:06:33.342Z,8.70
2023-02-24T11:09:00.223Z,5.90
2023-02-24T11:11:35.228Z,8.83
2023-02-24T11:14:03.106Z,9.50
2023-02-24T11:16:39.828Z,7.13
2023-02-24T11:19:07.076Z,5.73
2023-02-24T11:21:35.134Z,5.60
2023-02-24T11:24:04.073Z,4.90
2023-02-24T11:26:35.326Z,11.53
2023-02-24T11:29:23.718Z,8.47
2023-02-24T11:32:06.440Z,6.10
2023-02-24T11:34:42.937Z,13.10
2023-02-24T11:37:25.587Z,3.50
2023-02-24T11:39:58.655Z,3.43
2023-02-24T11:42:29.546Z,5.23
2023-02-24T11:45:01.746Z,3.40
2023-02-24T11:47:33.953Z,6.10
2023-02-24T11:50:14.118Z,5.20
2023-02-24T11:52:45.619Z,7.60
2023-02-24T11:55:20.097Z,6.83
2023-02-24T11:57:50.016Z,6.63
2023-02-24T12:00:20.739Z,7.40
2023-02-24T12:02:53.639Z,8.00
2023-02-24T12:05:24.621Z,11.07
2023-02-24T12:07:56.170Z,5.80
2023-02-24T12:10:27.433Z,5.47
2023-02-24T12:13:02.727Z,6.40
2023-02-24T12:15:33.455Z,3.70
2023-02-24T12:18:06.095Z,3.03
2023-02-24T12:20:38.248Z,5.20
2023-02-24T12:23:14.399Z,2.37
2023-02-24T12:25:53.839Z,6.83
2023-02-24T12:28:34.847Z,3.47
2023-02-24T12:31:13.214Z,10.43
2023-02-24T12:33:51.277Z,3.27
2023-02-24T12:36:30.516Z,4.50
2023-02-24T12:39:08.780Z,5.30
2023-02-24T12:41:46.230Z,5.63
2023-02-24T12:44:26.602Z,6.00
2023-02-24T12:46:59.687Z,3.93
2023-02-24T12:49:39.796Z,5.20
2023-02-24T12:52:16.283Z,8.40
2023-02-24T12:54:49.790Z,3.90
2023-02-24T12:57:25.166Z,2.47
2023-02-24T12:59:52.928Z,4.93
2023-02-24T13:02:31.269Z,5.07
2023-02-24T13:05:05.484Z,2.90
2023-02-24T13:07:47.344Z,3.30
2023-02-24T13:10:28.512Z,2.77
2023-02-24T13:13:06.495Z,3.33
2023-02-24T13:15:33.281Z,9.87
2023-02-24T13:18:00.018Z,5.53
2023-02-24T13:20:30.030Z,4.30
2023-02-24T13:22:57.727Z,1.77
2023-02-24T13:25:30.521Z,3.93
2023-02-24T13:28:00.535Z,2.40
2023-02-24T13:30:33.041Z,5.47
2023-02-24T13:33:02.859Z,7.43
2023-02-24T13:35:33.750Z,3.03
2023-02-24T13:38:25.048Z,2.87
2023-02-24T13:40:53.258Z,3.60
2023-02-24T13:43:26.489Z,3.80
2023-02-24T13:46:00.291Z,3.67
2023-02-24T13:48:57.612Z,3.43
2023-02-24T13:52:02.224Z,0.90
2023-02-24T13:55:00.381Z,1.60
2023-02-24T13:57:48.763Z,3.97
2023-02-24T14:00:26.767Z,4.17
2023-02-24T14:02:54.090Z,2.93
2023-02-24T14:05:25.541Z,2.90
2023-02-24T14:07:53.470Z,1.67
2023-02-24T14:10:22.474Z,1.20
2023-02-24T14:12:57.155Z,1.20
2023-02-24T14:15:26.824Z,1.47
2023-02-24T14:17:58.569Z,2.50
2023-02-24T14:20:27.107Z,2.07
2023-02-24T14:22:55.587Z,2.03
2023-02-24T14:25:23.328Z,1.63
2023-02-24T14:27:53.395Z,1.10
2023-02-24T14:30:28.165Z,3.73
2023-02-24T14:32:55.438Z,4.07
2023-02-24T14:35:28.598Z,2.57
2023-02-24T14:37:55.295Z,1.77
2023-02-24T14:40:21.991Z,1.33
2023-02-24T14:42:51.096Z,4.50
2023-02-24T14:45:20.184Z,2.00
2023-02-24T14:47:46.950Z,7.80
2023-02-24T14:50:16.571Z,2.43
2023-02-24T14:52:48.866Z,1.87
2023-02-24T14:55:18.970Z,1.70
2023-02-24T14:57:56.617Z,1.70
2023-02-24T15:00:26.528Z,2.77
2023-02-24T15:03:01.260Z,1.57
2023-02-24T15:05:28.215Z,2.37
2023-02-24T15:07:54.984Z,1.97
2023-02-24T15:10:24.789Z,2.03
2023-02-24T15:12:57.431Z,2.13
2023-02-24T15:15:27.963Z,1.70
2023-02-24T15:17:57.355Z,2.07
2023-02-24T15:20:26.538Z,2.60
2023-02-24T15:22:54.021Z,3.53
2023-02-24T15:25:28.011Z,2.43
2023-02-24T15:28:03.801Z,3.00
2023-02-24T15:30:33.899Z,2.37
2023-02-24T15:33:06.167Z,2.50
2023-02-24T15:35:34.322Z,4.00
2023-02-24T15:38:02.440Z,2.40
2023-02-24T15:40:29.797Z,2.13
2023-02-24T15:42:58.046Z,4.60
2023-02-24T15:45:30.693Z,2.23
2023-02-24T15:47:59.833Z,4.20
2023-02-24T15:50:28.156Z,2.27
2023-02-24T15:52:58.144Z,2.90
2023-02-24T15:55:27.372Z,3.07
2023-02-24T15:58:00.664Z,5.10
2023-02-24T16:00:29.583Z,3.33
2023-02-24T16:02:56.792Z,3.20
2023-02-24T16:05:23.992Z,3.07
2023-02-24T16:07:50.784Z,4.20
2023-02-24T16:10:20.910Z,6.40
2023-02-24T16:12:51.762Z,3.57
2023-02-24T16:15:22.736Z,2.93
2023-02-24T16:17:51.744Z,4.30
2023-02-24T16:20:21.093Z,3.00
2023-02-24T16:22:47.850Z,2.93
2023-02-24T16:25:16.477Z,4.83
2023-02-24T16:27:43.352Z,3.97
2023-02-24T16:30:15.797Z,3.20
2023-02-24T16:32:42.615Z,3.77
2023-02-24T16:35:11.886Z,4.10
2023-02-24T16:37:39.167Z,3.83
2023-02-24T16:40:20.092Z,8.83
2023-02-24T16:42:47.219Z,4.30
2023-02-24T16:45:13.978Z,5.80
2023-02-24T16:47:41.757Z,5.60
2023-02-24T16:50:18.856Z,6.23
2023-02-24T16:52:45.570Z,6.20
2023-02-24T16:55:13.055Z,5.00
2023-02-24T16:57:39.944Z,6.07
2023-02-24T17:00:08.090Z,3.63
2023-02-24T17:02:34.958Z,5.10
2023-02-24T17:05:01.770Z,6.60
2023-02-24T17:07:29.872Z,4.20
2023-02-24T17:09:56.529Z,6.40
2023-02-24T17:12:23.206Z,8.67
2023-02-24T17:14:50.045Z,6.73
2023-02-24T17:17:16.824Z,5.10
2023-02-24T17:19:43.477Z,7.60
2023-02-24T17:22:10.255Z,8.53
2023-02-24T17:24:38.378Z,12.63
2023-02-24T17:27:05.107Z,6.87
2023-02-24T17:29:31.798Z,7.33
2023-02-24T17:31:58.635Z,10.43
2023-02-24T17:34:25.445Z,8.27
2023-02-24T17:36:52.191Z,8.70
2023-02-24T17:39:18.895Z,8.13
2023-02-24T17:41:46.862Z,11.73
2023-02-24T17:44:13.578Z,8.57
2023-02-24T17:46:40.476Z,9.80
2023-02-24T17:49:07.272Z,7.77
2023-02-24T17:51:33.987Z,10.23
2023-02-24T17:54:00.725Z,13.67
2023-02-24T17:56:27.418Z,9.47
2023-02-24T17:58:55.470Z,8.93
2023-02-24T18:01:22.102Z,13.13
2023-02-24T18:03:48.907Z,9.60
2023-02-24T18:06:15.794Z,10.30
2023-02-24T18:08:42.472Z,7.70
2023-02-24T18:11:13.606Z,11.60
2023-02-24T18:13:40.310Z,5.80
2023-02-24T18:16:10.852Z,13.60
2023-02-24T18:18:37.829Z,12.30
2023-02-24T18:21:05.534Z,7.50
2023-02-24T18:23:32.735Z,8.60
2023-02-24T18:26:01.589Z,8.80
2023-02-24T18:28:28.363Z,10.30
2023-02-24T18:30:55.134Z,7.37
2023-02-24T18:33:23.447Z,8.97
2023-02-24T18:35:57.689Z,8.63
2023-02-24T18:38:24.438Z,9.90
2023-02-24T18:40:57.526Z,9.70
2023-02-24T18:43:24.365Z,12.50
2023-02-24T18:45:56.196Z,13.07
2023-02-24T18:48:24.733Z,9.87
2023-02-24T18:50:53.057Z,11.63
2023-02-24T18:53:21.043Z,7.53
2023-02-24T18:55:48.180Z,9.67
2023-02-24T18:58:15.832Z,12.03
2023-02-24T19:00:43.443Z,13.17
2023-02-24T19:03:10.498Z,10.43
2023-02-24T19:05:39.182Z,11.27
2023-02-24T19:08:05.943Z,14.80
2023-02-24T19:10:32.685Z,14.07
2023-02-24T19:12:59.346Z,11.13
2023-02-24T19:15:25.976Z,13.83
2023-02-24T19:17:52.645Z,12.63
2023-02-24T19:20:19.371Z,14.70
2023-02-24T19:22:48.741Z,12.10
2023-02-24T19:25:17.281Z,13.40
2023-02-24T19:27:43.903Z,15.10
2023-02-24T19:30:11.626Z,16.40
2023-02-24T19:32:38.632Z,13.40
2023-02-24T19:35:06.235Z,13.60
2023-02-24T19:37:33.559Z,12.43
2023-02-24T19:40:01.614Z,18.97
2023-02-24T19:42:28.262Z,15.80
2023-02-24T19:44:54.927Z,16.20
2023-02-24T19:47:21.581Z,15.10
2023-02-24T19:49:48.224Z,18.07
2023-02-24T19:52:15.008Z,16.10
2023-02-24T19:54:41.685Z,20.07
2023-02-24T19:57:10.416Z,17.67
2023-02-24T19:59:37.162Z,18.30
2023-02-24T20:02:03.770Z,12.70
2023-02-24T20:04:30.495Z,16.73
2023-02-24T20:06:57.144Z,17.70
2023-02-24T20:09:23.789Z,20.47
2023-02-24T20:11:51.408Z,13.70
2023-02-24T20:14:19.560Z,15.67
2023-02-24T20:16:46.893Z,18.40
2023-02-24T20:19:15.287Z,15.43
2023-02-24T20:21:42.236Z,15.47
2023-02-24T20:24:13.696Z,13.43
2023-02-24T20:26:42.267Z,14.47
2023-02-24T20:29:09.401Z,14.87
2023-02-24T20:31:37.520Z,14.63
2023-02-24T20:34:05.348Z,13.70
2023-02-24T20:36:32.101Z,16.53
2023-02-24T20:38:59.123Z,16.87
2023-02-24T20:41:26.832Z,13.23
2023-02-24T20:43:53.776Z,13.63
2023-02-24T20:46:23.225Z,13.10
2023-02-24T20:48:52.027Z,13.00
2023-02-24T20:51:18.952Z,12.17
2023-02-24T20:53:56.651Z,9.93
2023-02-24T20:56:25.840Z,12.30
2023-02-24T20:58:56.453Z,11.13
2023-02-24T21:01:23.241Z,9.13
2023-02-24T21:03:52.095Z,7.80
2023-02-24T21:06:19.181Z,8.67
2023-02-24T21:08:46.144Z,7.17
2023-02-24T21:11:13.852Z,17.83
2023-02-24T21:13:41.880Z,13.60
2023-02-24T21:16:10.016Z,10.37
2023-02-24T21:18:38.522Z,14.00
2023-02-24T21:21:07.935Z,7.80
2023-02-24T21:23:35.152Z,13.40
2023-02-24T21:26:01.955Z,10.80
2023-02-24T21:28:28.719Z,7.50
2023-02-24T21:30:55.713Z,12.03
2023-02-24T21:33:22.516Z,12.20
2023-02-24T21:35:57.592Z,11.27
2023-02-24T21:38:25.854Z,11.33
2023-02-24T21:40:52.569Z,10.57
2023-02-24T21:43:19.268Z,13.67
2023-02-24T21:45:45.976Z,12.10
2023-02-24T21:48:12.630Z,7.77
2023-02-24T21:50:39.281Z,12.53
2023-02-24T21:53:05.937Z,18.17
2023-02-24T21:55:33.909Z,9.27
2023-02-24T21:58:00.571Z,16.30
2023-02-24T22:00:27.246Z,11.40
2023-02-24T22:02:55.616Z,10.27
2023-02-24T22:05:24.205Z,16.13
2023-02-24T22:07:51.548Z,15.87
2023-02-24T22:10:20.932Z,14.13
2023-02-24T22:12:49.693Z,19.60
2023-02-24T22:15:16.382Z,16.73
2023-02-24T22:17:43.036Z,12.77
2023-02-24T22:20:12.043Z,15.07
2023-02-24T22:22:39.938Z,19.97
2023-02-24T22:25:08.172Z,18.63
2023-02-24T22:27:34.849Z,11.40
2023-02-24T22:30:03.324Z,19.20
2023-02-24T22:32:30.242Z,18.60
2023-02-24T22:34:56.932Z,15.57
2023-02-24T22:37:23.646Z,12.27
2023-02-24T22:39:50.346Z,5.47
2023-02-24T22:42:17.028Z,8.53
2023-02-24T22:44:43.835Z,2.20
2023-02-24T22:47:11.851Z,4.90
2023-02-24T22:49:38.647Z,5.33
2023-02-24T22:52:05.311Z,4.50
2023-02-24T22:54:31.950Z,5.40
2023-02-24T22:56:58.615Z,12.23
2023-02-24T22:59:25.248Z,12.87
2023-02-24T23:01:51.894Z,8.37
2023-02-24T23:04:19.946Z,17.90
2023-02-24T23:06:46.585Z,12.57
2023-02-24T23:09:13.637Z,9.87
2023-02-24T23:11:41.481Z,11.17
2023-02-24T23:14:10.715Z,8.50
2023-02-24T23:16:37.885Z,15.80
2023-02-24T23:19:06.679Z,12.47
2023-02-24T23:21:36.343Z,14.23
2023-02-24T23:24:03.104Z,12.60
2023-02-24T23:26:30.492Z,19.43
2023-02-24T23:28:57.166Z,18.53
2023-02-24T23:31:24.117Z,21.83
2023-02-24T23:33:51.780Z,17.27
2023-02-24T23:36:18.964Z,16.27
2023-02-24T23:38:46.938Z,21.83
2023-02-24T23:41:14.191Z,16.27
2023-02-24T23:43:40.900Z,14.10
2023-02-24T23:46:10.032Z,16.30
2023-02-24T23:48:37.707Z,15.53
2023-02-24T23:51:05.496Z,14.63
2023-02-24T23:53:32.465Z,13.13
2023-02-24T23:56:00.476Z,20.20
2023-02-24T23:58:27.114Z,21.83
